Time;durP1;ratioP1;P1;durP2;ratioP2;P2;SDS_P1;SDS_P2;PMS_P1;PMS_P2;Temp;Humidity;BMP_temperature;BMP_pressure;BME280_temperature;BME280_humidity;BME280_pressure;Samples;Min_cycle;Max_cycle;Signal;HPM_P1;HPM_P2
2023/08/17 00:00:34;;;;;;;7.93;2.05;;;17.50;99.90;;;;;;4953953;28;20072;-70
2023/08/17 00:03:00;;;;;;;0.10;0.10;;;17.50;99.90;;;;;;4941231;28;20072;-70
2023/08/17 00:05:27;;;;;;;0.00;0.00;;;17.50;99.90;;;;;;4910924;28;20048;-70
2023/08/17 00:07:52;;;;;;;0.00;0.00;;;17.50;99.90;;;;;;4909053;28;20052;-70
2023/08/17 00:10:18;;;;;;;0.00;0.00;;;17.50;99.90;;;;;;4953565;28;20050;-70
2023/08/17 00:12:44;;;;;;;0.40;0.40;;;17.40;99.90;;;;;;4919617;28;20068;-69
2023/08/17 00:15:10;;;;;;;0.00;0.00;;;17.40;99.90;;;;;;4906890;28;20098;-70
2023/08/17 00:17:35;;;;;;;0.20;0.20;;;17.30;99.90;;;;;;4921659;28;20484;-70
2023/08/17 00:20:01;;;;;;;0.00;0.00;;;17.30;99.90;;;;;;4961536;28;20040;-70
2023/08/17 00:22:27;;;;;;;0.00;0.00;;;17.20;99.90;;;;;;4949780;28;20460;-70
2023/08/17 00:24:52;;;;;;;0.00;0.00;;;17.20;99.90;;;;;;4969345;28;20040;-69
2023/08/17 00:27:18;;;;;;;0.00;0.00;;;17.30;99.90;;;;;;4969970;28;20473;-70
2023/08/17 00:29:43;;;;;;;0.10;0.10;;;17.20;99.90;;;;;;4916413;28;20142;-70
2023/08/17 00:32:09;;;;;;;0.00;0.00;;;17.20;99.90;;;;;;4925259;28;20128;-70
2023/08/17 00:34:35;;;;;;;0.55;0.35;;;17.20;99.90;;;;;;4907222;28;20064;-70
2023/08/17 00:37:00;;;;;;;0.10;0.10;;;17.10;99.90;;;;;;4922631;28;20059;-70
2023/08/17 00:39:26;;;;;;;0.00;0.00;;;17.20;99.90;;;;;;4944696;28;20056;-70
2023/08/17 00:41:52;;;;;;;0.00;0.00;;;17.20;99.90;;;;;;4910465;28;20462;-70
2023/08/17 00:44:17;;;;;;;0.10;0.10;;;17.10;99.90;;;;;;4958505;28;20044;-70
2023/08/17 00:46:43;;;;;;;0.00;0.00;;;17.00;99.90;;;;;;4975543;28;20561;-70
2023/08/17 00:49:10;;;;;;;0.05;0.05;;;17.00;99.90;;;;;;4931550;28;20055;-70
2023/08/17 00:51:36;;;;;;;0.00;0.00;;;17.00;99.90;;;;;;4952111;28;20077;-70
2023/08/17 00:54:02;;;;;;;0.30;0.30;;;16.90;99.90;;;;;;4920051;28;20079;-70
2023/08/17 00:56:28;;;;;;;0.00;0.00;;;16.90;99.90;;;;;;4945168;28;20056;-70
2023/08/17 00:58:55;;;;;;;0.00;0.00;;;16.90;99.90;;;;;;4912031;28;20052;-70
2023/08/17 01:01:21;;;;;;;0.00;0.00;;;16.90;99.90;;;;;;4962919;28;20052;-70
2023/08/17 01:03:47;;;;;;;0.00;0.00;;;16.90;99.90;;;;;;4914697;28;20075;-70
2023/08/17 01:06:13;;;;;;;0.10;0.10;;;16.90;99.90;;;;;;4915502;28;20094;-70
2023/08/17 01:08:40;;;;;;;0.00;0.00;;;16.90;99.90;;;;;;4956572;28;20080;-70
2023/08/17 01:11:19;;;;;;;0.03;0.03;;;16.80;99.90;;;;;;4910071;28;20037;-70
2023/08/17 01:14:03;;;;;;;0.30;0.30;;;16.80;99.90;;;;;;4957003;28;20050;-70
2023/08/17 01:16:50;;;;;;;;;;;16.80;99.90;;;;;;4955396;28;20125;-69
2023/08/17 01:19:24;;;;;;;0.00;0.00;;;16.70;99.90;;;;;;4948701;28;19921;-70
2023/08/17 01:21:50;;;;;;;0.43;0.20;;;16.70;99.90;;;;;;4910508;28;20113;-69
2023/08/17 01:24:16;;;;;;;0.00;0.00;;;16.80;99.90;;;;;;4932713;28;20096;-69
2023/08/17 01:26:41;;;;;;;0.10;0.10;;;16.80;99.90;;;;;;4940486;28;20052;-69
2023/08/17 01:29:07;;;;;;;0.00;0.00;;;16.70;99.90;;;;;;4968438;28;20041;-70
2023/08/17 01:32:01;;;;;;;0.00;0.00;;;16.70;99.90;;;;;;4920318;28;20056;-69
2023/08/17 01:34:29;;;;;;;2.00;0.75;;;16.70;99.90;;;;;;4934959;28;20501;-69
2023/08/17 01:36:59;;;;;;;0.00;0.00;;;16.70;99.90;;;;;;4960884;28;20032;-69
2023/08/17 01:39:37;;;;;;;0.00;0.00;;;16.60;99.90;;;;;;4921642;28;20048;-69
2023/08/17 01:42:05;;;;;;;11.40;0.55;;;16.60;99.90;;;;;;4931355;28;20591;-70
2023/08/17 01:44:31;;;;;;;0.00;0.00;;;16.60;99.90;;;;;;4963926;28;20048;-70
2023/08/17 01:46:57;;;;;;;0.00;0.00;;;16.60;99.90;;;;;;4951438;28;20046;-69
2023/08/17 01:49:23;;;;;;;0.00;0.00;;;16.50;99.90;;;;;;4919352;28;20040;-69
2023/08/17 01:51:48;;;;;;;2.40;1.13;;;16.50;99.90;;;;;;4927330;28;20050;-69
2023/08/17 01:54:14;;;;;;;0.00;0.00;;;16.60;99.90;;;;;;4922124;28;20052;-68
2023/08/17 01:56:40;;;;;;;0.00;0.00;;;16.60;99.90;;;;;;4931777;28;20083;-69
2023/08/17 01:59:05;;;;;;;0.10;0.10;;;16.60;99.90;;;;;;4914849;28;20381;-69
2023/08/17 02:01:31;;;;;;;0.00;0.00;;;16.60;99.90;;;;;;4967376;28;20037;-69
2023/08/17 02:03:57;;;;;;;0.00;0.00;;;16.50;99.90;;;;;;4926572;28;20040;-69
2023/08/17 02:06:23;;;;;;;0.00;0.00;;;16.50;99.90;;;;;;4931477;28;20064;-69
2023/08/17 02:08:48;;;;;;;0.00;0.00;;;16.50;99.90;;;;;;4940093;28;20073;-69
2023/08/17 02:11:14;;;;;;;0.00;0.00;;;16.50;99.90;;;;;;4974392;28;20096;-69
2023/08/17 02:13:39;;;;;;;0.00;0.00;;;16.50;99.90;;;;;;4952236;28;20048;-69
2023/08/17 02:16:05;;;;;;;0.00;0.00;;;16.40;99.90;;;;;;4938261;28;20087;-69
2023/08/17 02:18:33;;;;;;;0.00;0.00;;;16.50;99.90;;;;;;4951418;28;20048;-69
2023/08/17 02:20:58;;;;;;;0.10;0.10;;;16.50;99.90;;;;;;4942396;28;20079;-69
2023/08/17 02:23:24;;;;;;;0.15;0.08;;;16.40;99.90;;;;;;4946179;28;20079;-69
2023/08/17 02:25:49;;;;;;;0.00;0.00;;;16.40;99.90;;;;;;4945754;28;20046;-69
2023/08/17 02:28:15;;;;;;;0.10;0.10;;;16.40;99.90;;;;;;4961327;28;20118;-69
2023/08/17 02:30:41;;;;;;;0.00;0.00;;;16.30;99.90;;;;;;4945027;28;20043;-70
2023/08/17 02:33:07;;;;;;;0.00;0.00;;;16.40;99.90;;;;;;4951594;28;20393;-70
2023/08/17 02:35:33;;;;;;;5.30;0.80;;;16.30;99.90;;;;;;4928968;28;20061;-69
2023/08/17 02:37:58;;;;;;;0.30;0.20;;;16.40;99.90;;;;;;4947010;28;20056;-69
2023/08/17 02:40:24;;;;;;;0.20;0.20;;;16.40;99.90;;;;;;4952891;28;20072;-69
2023/08/17 02:42:50;;;;;;;0.00;0.00;;;16.40;99.90;;;;;;4959168;28;20503;-69
2023/08/17 02:45:15;;;;;;;0.15;0.15;;;16.40;99.90;;;;;;4949822;28;20057;-69
2023/08/17 02:47:41;;;;;;;0.20;0.20;;;16.40;99.90;;;;;;4961381;28;20075;-70
2023/08/17 02:50:07;;;;;;;0.10;0.10;;;16.50;99.90;;;;;;4957840;28;20536;-69
2023/08/17 02:52:33;;;;;;;0.10;0.10;;;16.50;99.90;;;;;;4908302;28;20106;-69
2023/08/17 02:54:59;;;;;;;0.10;0.10;;;16.50;99.90;;;;;;4932179;28;20052;-69
2023/08/17 02:57:24;;;;;;;0.00;0.00;;;16.50;99.90;;;;;;4951640;28;20030;-69
2023/08/17 02:59:50;;;;;;;0.00;0.00;;;16.40;99.90;;;;;;4909612;28;20381;-69
2023/08/17 03:02:16;;;;;;;0.00;0.00;;;16.50;99.90;;;;;;4958816;28;20053;-69
2023/08/17 03:04:41;;;;;;;0.00;0.00;;;16.40;99.90;;;;;;4950129;28;20034;-69
2023/08/17 03:07:07;;;;;;;3.65;0.65;;;16.40;99.90;;;;;;4959795;28;20469;-69
2023/08/17 03:09:33;;;;;;;0.15;0.15;;;16.50;99.90;;;;;;4921759;28;20054;-70
2023/08/17 03:11:58;;;;;;;0.00;0.00;;;16.40;99.90;;;;;;4923514;28;20448;-70
2023/08/17 03:14:24;;;;;;;0.10;0.10;;;16.40;99.90;;;;;;4921009;28;20040;-69
2023/08/17 03:16:50;;;;;;;0.00;0.00;;;16.40;99.90;;;;;;4976697;28;20142;-69
2023/08/17 03:19:15;;;;;;;0.00;0.00;;;16.40;99.90;;;;;;4981276;28;20042;-70
2023/08/17 03:21:41;;;;;;;0.22;0.22;;;16.40;99.90;;;;;;4909430;28;20076;-69
2023/08/17 03:24:07;;;;;;;0.00;0.00;;;16.40;99.90;;;;;;4946650;28;20046;-69
2023/08/17 03:26:33;;;;;;;0.10;0.00;;;16.40;99.90;;;;;;4956242;28;20127;-69
2023/08/17 03:28:58;;;;;;;0.08;0.08;;;16.40;99.90;;;;;;4957635;28;20394;-69
2023/08/17 03:31:24;;;;;;;0.00;0.00;;;16.40;99.90;;;;;;4913538;28;20492;-69
2023/08/17 03:33:50;;;;;;;0.00;0.00;;;16.30;99.90;;;;;;4940288;28;20059;-69
2023/08/17 03:36:15;;;;;;;0.60;0.60;;;16.30;99.90;;;;;;4972202;28;20059;-69
2023/08/17 03:38:41;;;;;;;0.08;0.08;;;16.40;99.90;;;;;;4931217;28;20056;-69
2023/08/17 03:41:07;;;;;;;0.00;0.00;;;16.40;99.90;;;;;;4968629;28;20041;-69
2023/08/17 03:43:32;;;;;;;0.00;0.00;;;16.40;99.90;;;;;;4951690;28;20065;-69
2023/08/17 03:45:58;;;;;;;0.00;0.00;;;16.40;99.90;;;;;;4939048;28;20040;-70
2023/08/17 03:48:24;;;;;;;0.00;0.00;;;16.40;99.90;;;;;;4920237;28;20063;-70
2023/08/17 03:50:55;;;;;;;0.10;0.10;;;16.30;99.90;;;;;;4934307;28;20068;-70
2023/08/17 03:53:21;;;;;;;0.00;0.00;;;16.30;99.90;;;;;;4955866;28;20163;-70
2023/08/17 03:55:50;;;;;;;0.32;0.32;;;16.30;99.90;;;;;;4907619;28;20040;-69
2023/08/17 03:58:16;;;;;;;4.13;1.70;;;16.20;99.90;;;;;;4929353;28;20148;-70
2023/08/17 04:00:42;;;;;;;0.00;0.00;;;16.30;99.90;;;;;;4952732;28;20473;-69
2023/08/17 04:03:08;;;;;;;0.00;0.00;;;16.30;99.90;;;;;;4916572;28;20103;-69
2023/08/17 04:05:34;;;;;;;0.00;0.00;;;16.30;99.90;;;;;;4951219;28;20049;-69
2023/08/17 04:08:02;;;;;;;0.00;0.00;;;16.20;99.90;;;;;;4953086;28;20092;-70
2023/08/17 04:10:29;;;;;;;0.15;0.10;;;16.20;99.90;;;;;;4967219;28;20075;-69
2023/08/17 04:12:55;;;;;;;0.00;0.00;;;16.20;99.90;;;;;;4940175;28;20099;-69
2023/08/17 04:15:21;;;;;;;0.00;0.00;;;16.10;99.90;;;;;;4912168;28;20123;-69
2023/08/17 04:17:46;;;;;;;0.00;0.00;;;16.20;99.90;;;;;;4937693;28;20125;-69
2023/08/17 04:20:12;;;;;;;0.10;0.10;;;16.10;99.90;;;;;;4914940;28;20128;-69
2023/08/17 04:22:37;;;;;;;0.00;0.00;;;16.20;99.90;;;;;;4960882;28;20056;-69
2023/08/17 04:25:03;;;;;;;0.00;0.00;;;16.10;99.90;;;;;;4934206;28;20045;-69
2023/08/17 04:27:29;;;;;;;0.00;0.00;;;16.10;99.90;;;;;;4974685;28;20038;-69
2023/08/17 04:29:54;;;;;;;0.00;0.00;;;16.20;99.90;;;;;;4951446;28;20504;-69
2023/08/17 04:32:20;;;;;;;1.10;0.98;;;16.20;99.90;;;;;;4916178;28;20064;-69
2023/08/17 04:34:46;;;;;;;0.00;0.00;;;16.20;99.90;;;;;;4941447;28;20047;-69
2023/08/17 04:37:12;;;;;;;0.03;0.03;;;16.20;99.90;;;;;;4969825;28;20552;-69
2023/08/17 04:39:38;;;;;;;0.30;0.28;;;16.20;99.90;;;;;;4920250;28;20036;-69
2023/08/17 04:42:04;;;;;;;0.00;0.00;;;16.20;99.90;;;;;;4971873;28;20087;-70
2023/08/17 04:44:30;;;;;;;0.00;0.00;;;16.30;99.90;;;;;;4924273;28;20113;-69
2023/08/17 04:46:55;;;;;;;0.00;0.00;;;16.30;99.90;;;;;;4953681;28;20046;-69
2023/08/17 04:49:21;;;;;;;0.10;0.10;;;16.40;99.90;;;;;;4916778;28;20051;-69
2023/08/17 04:51:46;;;;;;;0.10;0.10;;;16.30;99.90;;;;;;4963416;28;20034;-69
2023/08/17 04:54:12;;;;;;;0.00;0.00;;;16.30;99.90;;;;;;4952722;28;20052;-70
2023/08/17 04:56:38;;;;;;;0.00;0.00;;;16.40;99.90;;;;;;4936993;28;20453;-69
2023/08/17 04:59:03;;;;;;;0.05;0.05;;;16.40;99.90;;;;;;4911020;28;20056;-69
2023/08/17 05:01:29;;;;;;;0.10;0.10;;;16.40;99.90;;;;;;4950068;28;20034;-69
2023/08/17 05:03:54;;;;;;;0.00;0.00;;;16.50;99.90;;;;;;4938310;28;20588;-70
2023/08/17 05:06:20;;;;;;;0.00;0.00;;;16.50;99.90;;;;;;4960316;28;20056;-69
2023/08/17 05:08:45;;;;;;;0.00;0.00;;;16.50;99.90;;;;;;4923873;28;20033;-69
2023/08/17 05:11:12;;;;;;;0.00;0.00;;;16.50;99.90;;;;;;4920310;28;20102;-69
2023/08/17 05:13:37;;;;;;;0.00;0.00;;;16.50;99.90;;;;;;4964495;28;20497;-69
2023/08/17 05:16:03;;;;;;;0.00;0.00;;;16.50;99.90;;;;;;4968260;28;20050;-69
2023/08/17 05:18:29;;;;;;;0.08;0.08;;;16.50;99.90;;;;;;4909203;28;20052;-70
2023/08/17 05:20:54;;;;;;;0.00;0.00;;;16.50;99.90;;;;;;4929485;28;20051;-69
2023/08/17 05:23:20;;;;;;;0.00;0.00;;;16.60;99.90;;;;;;4952889;28;20059;-69
2023/08/17 05:25:47;;;;;;;0.10;0.10;;;16.60;99.90;;;;;;4959314;28;20110;-69
2023/08/17 05:28:13;;;;;;;0.30;0.28;;;16.60;99.90;;;;;;4923646;28;20166;-69
2023/08/17 05:30:39;;;;;;;0.03;0.03;;;16.60;99.90;;;;;;4972789;28;20119;-70
2023/08/17 05:33:04;;;;;;;0.00;0.00;;;16.70;99.90;;;;;;4909923;28;20063;-69
2023/08/17 05:35:30;;;;;;;0.00;0.00;;;16.70;99.90;;;;;;4942465;28;20108;-69
2023/08/17 05:37:55;;;;;;;0.35;0.20;;;16.80;99.90;;;;;;4942940;28;20476;-69
2023/08/17 05:40:21;;;;;;;0.30;0.25;;;16.90;99.90;;;;;;4952821;28;20038;-69
2023/08/17 05:42:47;;;;;;;2.92;1.35;;;16.90;99.90;;;;;;4899809;28;20125;-70
2023/08/17 05:45:12;;;;;;;0.00;0.00;;;16.90;99.90;;;;;;4937410;28;20050;-69
2023/08/17 05:47:38;;;;;;;0.00;0.00;;;17.00;99.90;;;;;;4968672;28;20048;-69
2023/08/17 05:50:04;;;;;;;0.00;0.00;;;17.00;99.90;;;;;;4962604;28;20034;-69
2023/08/17 05:52:31;;;;;;;0.00;0.00;;;17.00;99.90;;;;;;4954905;28;20511;-69
2023/08/17 05:54:56;;;;;;;0.22;0.22;;;17.00;99.90;;;;;;4976526;28;20053;-69
2023/08/17 05:57:22;;;;;;;0.00;0.00;;;17.00;99.90;;;;;;4947102;28;20055;-69
2023/08/17 05:59:48;;;;;;;0.00;0.00;;;17.00;99.90;;;;;;4944629;28;20473;-69
2023/08/17 06:02:13;;;;;;;0.05;0.05;;;17.00;99.90;;;;;;4910968;28;20051;-69
2023/08/17 06:04:39;;;;;;;0.00;0.00;;;17.10;99.90;;;;;;4979849;28;20038;-69
2023/08/17 06:07:05;;;;;;;0.00;0.00;;;17.10;99.90;;;;;;4945352;28;20052;-69
2023/08/17 06:09:31;;;;;;;0.00;0.00;;;17.10;99.90;;;;;;4964244;28;20044;-69
2023/08/17 06:11:56;;;;;;;0.00;0.00;;;17.20;99.90;;;;;;4940506;28;20045;-70
2023/08/17 06:14:22;;;;;;;0.00;0.00;;;17.20;99.90;;;;;;4922840;28;20484;-69
2023/08/17 06:16:48;;;;;;;0.00;0.00;;;17.20;99.90;;;;;;4960566;28;20100;-69
2023/08/17 06:19:13;;;;;;;0.00;0.00;;;17.30;99.90;;;;;;4944852;28;20056;-69
2023/08/17 06:21:39;;;;;;;0.00;0.00;;;17.40;99.90;;;;;;4918197;28;20044;-69
2023/08/17 06:24:05;;;;;;;0.00;0.00;;;17.50;99.90;;;;;;4934346;28;20037;-69
2023/08/17 06:26:31;;;;;;;0.10;0.10;;;17.50;99.90;;;;;;4961388;28;20052;-69
2023/08/17 06:28:56;;;;;;;0.00;0.00;;;17.60;99.90;;;;;;4931047;28;20064;-69
2023/08/17 06:31:27;;;;;;;9.32;0.65;;;17.60;99.90;;;;;;4908892;28;20048;-69
2023/08/17 06:33:55;;;;;;;0.20;0.20;;;17.60;99.90;;;;;;4920664;28;20124;-69
2023/08/17 06:36:21;;;;;;;0.10;0.10;;;17.60;99.90;;;;;;4942492;28;20369;-69
2023/08/17 06:38:47;;;;;;;0.00;0.00;;;17.70;99.90;;;;;;4943414;28;20048;-69
2023/08/17 06:41:13;;;;;;;0.00;0.00;;;17.70;99.90;;;;;;4921143;28;20052;-69
2023/08/17 06:43:38;;;;;;;0.00;0.00;;;17.80;99.90;;;;;;4927421;28;20043;-69
2023/08/17 06:46:04;;;;;;;0.00;0.00;;;17.90;99.90;;;;;;4936110;28;20044;-69
2023/08/17 06:48:31;;;;;;;0.00;0.00;;;18.00;99.90;;;;;;4927465;28;20047;-69
2023/08/17 06:50:56;;;;;;;0.00;0.00;;;18.00;99.90;;;;;;4931845;28;20048;-69
2023/08/17 06:53:22;;;;;;;0.10;0.10;;;18.10;99.90;;;;;;4940450;28;20042;-68
2023/08/17 06:55:48;;;;;;;0.00;0.00;;;18.20;99.90;;;;;;4929773;28;20040;-69
2023/08/17 06:58:13;;;;;;;0.00;0.00;;;18.20;99.90;;;;;;4916942;28;20076;-69
2023/08/17 07:00:40;;;;;;;0.00;0.00;;;18.30;99.90;;;;;;4952103;28;20072;-68
2023/08/17 07:03:06;;;;;;;0.00;0.00;;;18.40;99.90;;;;;;4932678;28;20069;-69
2023/08/17 07:05:32;;;;;;;0.00;0.00;;;18.50;99.90;;;;;;4919203;28;20492;-69
2023/08/17 07:07:59;;;;;;;0.00;0.00;;;18.40;99.90;;;;;;4970270;28;20042;-69
2023/08/17 07:10:25;;;;;;;0.00;0.00;;;18.50;99.90;;;;;;4930214;28;20052;-70
2023/08/17 07:12:50;;;;;;;0.00;0.00;;;18.60;99.90;;;;;;4954523;28;20052;-70
2023/08/17 07:15:16;;;;;;;2.85;1.65;;;18.60;99.90;;;;;;4952800;28;20054;-69
2023/08/17 07:17:42;;;;;;;0.00;0.00;;;18.60;99.90;;;;;;4934954;28;20053;-69
2023/08/17 07:20:08;;;;;;;0.00;0.00;;;18.70;99.90;;;;;;4975066;28;20052;-69
2023/08/17 07:22:34;;;;;;;0.00;0.00;;;18.70;99.90;;;;;;4945760;28;20044;-69
2023/08/17 07:25:00;;;;;;;0.00;0.00;;;18.70;99.90;;;;;;4973521;28;20056;-70
2023/08/17 07:27:25;;;;;;;0.00;0.00;;;18.70;99.90;;;;;;4944901;28;20238;-69
2023/08/17 07:29:51;;;;;;;0.10;0.10;;;18.70;99.90;;;;;;4971123;28;20040;-70
2023/08/17 07:32:17;;;;;;;0.00;0.00;;;18.80;99.90;;;;;;4960145;28;20460;-70
2023/08/17 07:34:42;;;;;;;16.25;0.52;;;18.80;99.90;;;;;;4957711;28;20499;-70
2023/08/17 07:37:08;;;;;;;0.00;0.00;;;18.80;99.90;;;;;;4951263;28;20037;-70
2023/08/17 07:39:33;;;;;;;0.35;0.32;;;18.90;99.90;;;;;;4965176;28;20099;-71
2023/08/17 07:41:59;;;;;;;0.00;0.00;;;18.90;99.90;;;;;;4996462;28;20042;-71
2023/08/17 07:44:25;;;;;;;0.05;0.05;;;19.00;99.90;;;;;;4956633;28;20099;-69
2023/08/17 07:46:50;;;;;;;0.00;0.00;;;19.00;99.90;;;;;;4947798;28;20401;-70
2023/08/17 07:49:16;;;;;;;0.08;0.08;;;19.00;99.90;;;;;;4945791;28;20038;-69
2023/08/17 07:51:42;;;;;;;0.08;0.08;;;19.10;99.90;;;;;;4947023;28;20071;-69
2023/08/17 07:54:07;;;;;;;0.00;0.00;;;19.10;99.90;;;;;;4940789;28;20498;-70
2023/08/17 07:56:33;;;;;;;0.00;0.00;;;19.10;99.90;;;;;;4930146;28;20053;-69
2023/08/17 07:58:59;;;;;;;0.00;0.00;;;19.10;99.90;;;;;;4913154;28;20052;-69
2023/08/17 08:01:24;;;;;;;0.00;0.00;;;19.20;99.90;;;;;;4924054;28;20514;-69
2023/08/17 08:03:50;;;;;;;0.00;0.00;;;19.20;99.90;;;;;;4953483;28;20098;-69
2023/08/17 08:06:16;;;;;;;0.00;0.00;;;19.30;99.90;;;;;;4955855;28;20048;-69
2023/08/17 08:08:41;;;;;;;0.00;0.00;;;19.40;99.90;;;;;;4956668;28;20747;-69
2023/08/17 08:11:07;;;;;;;0.00;0.00;;;19.50;99.90;;;;;;4929824;28;20099;-70
2023/08/17 08:13:33;;;;;;;0.00;0.00;;;19.50;99.90;;;;;;4955621;28;20556;-70
2023/08/17 08:15:59;;;;;;;0.00;0.00;;;19.50;99.90;;;;;;4951026;28;20041;-70
2023/08/17 08:18:25;;;;;;;0.40;0.40;;;19.50;99.90;;;;;;4938909;28;20121;-70
2023/08/17 08:20:50;;;;;;;0.00;0.00;;;19.60;99.90;;;;;;4968444;28;20041;-70
2023/08/17 08:23:16;;;;;;;3.63;2.22;;;19.70;99.90;;;;;;4971075;28;20051;-70
2023/08/17 08:25:42;;;;;;;0.00;0.00;;;19.70;99.90;;;;;;4920763;28;20075;-71
2023/08/17 08:28:08;;;;;;;0.00;0.00;;;19.60;99.90;;;;;;4939233;28;20386;-70
2023/08/17 08:30:34;;;;;;;0.00;0.00;;;19.50;99.90;;;;;;4955375;28;20127;-70
2023/08/17 08:32:59;;;;;;;0.25;0.25;;;19.50;99.90;;;;;;4949596;28;21496;-71
2023/08/17 08:35:25;;;;;;;0.10;0.05;;;19.40;99.90;;;;;;4968223;28;20060;-71
2023/08/17 08:37:51;;;;;;;0.00;0.00;;;19.50;99.90;;;;;;4946288;28;20059;-70
2023/08/17 08:40:17;;;;;;;0.00;0.00;;;19.50;99.90;;;;;;4944601;28;20078;-70
2023/08/17 08:42:44;;;;;;;0.00;0.00;;;19.50;99.90;;;;;;4968129;28;20130;-71
2023/08/17 08:45:10;;;;;;;0.00;0.00;;;19.50;99.90;;;;;;4936608;28;20133;-70
2023/08/17 08:47:37;;;;;;;0.20;0.20;;;19.40;99.90;;;;;;4954249;28;20048;-70
2023/08/17 08:50:04;;;;;;;0.00;0.00;;;19.50;99.90;;;;;;4909741;28;20048;-71
2023/08/17 08:52:45;;;;;;;0.00;0.00;;;19.60;99.90;;;;;;4961916;28;20059;-70
2023/08/17 08:55:19;;;;;;;0.00;0.00;;;19.70;99.90;;;;;;4981004;28;21834;-70
2023/08/17 08:57:47;;;;;;;0.88;0.43;;;20.00;99.90;;;;;;4958910;28;20202;-71
2023/08/17 09:00:13;;;;;;;0.00;0.00;;;20.10;99.90;;;;;;4923683;28;20068;-71
2023/08/17 09:02:39;;;;;;;0.00;0.00;;;20.20;99.90;;;;;;4956592;28;20052;-71
2023/08/17 09:05:06;;;;;;;0.17;0.17;;;20.20;99.90;;;;;;4909933;28;20047;-71
2023/08/17 09:07:33;;;;;;;0.00;0.00;;;20.10;99.90;;;;;;4924262;28;20058;-70
2023/08/17 09:09:59;;;;;;;0.43;0.38;;;20.00;99.90;;;;;;4929625;28;20029;-70
2023/08/17 09:12:25;;;;;;;0.00;0.00;;;20.00;99.90;;;;;;4914528;28;20048;-70
2023/08/17 09:14:50;;;;;;;0.00;0.00;;;20.10;99.90;;;;;;4968343;28;20050;-71
2023/08/17 09:17:27;;;;;;;0.00;0.00;;;20.20;99.90;;;;;;4931928;28;20187;-70
2023/08/17 09:19:53;;;;;;;0.00;0.00;;;20.30;99.90;;;;;;4947236;28;20040;-70
2023/08/17 09:22:40;;;;;;;0.00;0.00;;;20.40;99.90;;;;;;4938067;28;20078;-71
2023/08/17 09:25:07;;;;;;;1.80;0.15;;;20.90;99.90;;;;;;4951585;28;20451;-70
2023/08/17 09:27:32;;;;;;;3.30;0.35;;;21.20;99.90;;;;;;4939631;28;20597;-70
2023/08/17 09:30:06;;;;;;;0.00;0.00;;;21.70;99.90;;;;;;4917423;28;20135;-70
2023/08/17 09:32:33;;;;;;;0.17;0.15;;;22.10;99.90;;;;;;4913203;28;20060;-70
2023/08/17 09:35:06;;;;;;;1.35;1.15;;;22.10;99.90;;;;;;4949742;28;20054;-70
2023/08/17 09:37:32;;;;;;;0.80;0.15;;;22.40;99.90;;;;;;4929077;28;20044;-71
2023/08/17 09:39:58;;;;;;;0.00;0.00;;;22.70;99.90;;;;;;4935348;28;20075;-71
2023/08/17 09:42:25;;;;;;;0.00;0.00;;;22.50;99.90;;;;;;4934494;28;20125;-71
2023/08/17 09:44:52;;;;;;;0.70;0.70;;;22.70;99.90;;;;;;4950422;28;20749;-71
2023/08/17 09:47:18;;;;;;;0.03;0.03;;;22.80;99.90;;;;;;4924872;28;20089;-71
2023/08/17 09:49:53;;;;;;;0.00;0.00;;;22.80;99.90;;;;;;4913833;28;20083;-71
2023/08/17 09:52:26;;;;;;;0.00;0.00;;;22.50;99.90;;;;;;4903949;28;20125;-71
2023/08/17 09:54:54;;;;;;;0.00;0.00;;;22.20;99.90;;;;;;4970527;28;20129;-71
2023/08/17 09:57:21;;;;;;;0.10;0.10;;;21.90;99.90;;;;;;4938714;28;20048;-71
2023/08/17 09:59:47;;;;;;;0.47;0.43;;;21.90;99.90;;;;;;4918319;28;20048;-71
2023/08/17 10:02:19;;;;;;;0.00;0.00;;;21.80;99.90;;;;;;4974677;28;20108;-70
2023/08/17 10:04:52;;;;;;;0.00;0.00;;;21.60;99.90;;;;;;4945829;28;20049;-69
2023/08/17 10:07:20;;;;;;;0.00;0.00;;;21.50;99.90;;;;;;4919822;28;20051;-70
2023/08/17 10:09:52;;;;;;;3.63;0.80;;;21.60;99.90;;;;;;4924847;28;20052;-72
2023/08/17 10:12:19;;;;;;;0.00;0.00;;;21.60;99.90;;;;;;4911464;28;20044;-70
2023/08/17 10:14:53;;;;;;;0.00;0.00;;;21.60;99.90;;;;;;4914665;28;20054;-70
2023/08/17 10:17:27;;;;;;;0.00;0.00;;;21.80;99.90;;;;;;4946288;28;20066;-70
2023/08/17 10:19:56;;;;;;;0.00;0.00;;;22.20;99.90;;;;;;4924051;28;20110;-70
2023/08/17 10:22:33;;;;;;;0.00;0.00;;;22.60;99.90;;;;;;4924307;28;20131;-70
2023/08/17 10:25:00;;;;;;;0.20;0.20;;;23.00;99.90;;;;;;4955369;28;21590;-70
2023/08/17 10:27:27;;;;;;;0.10;0.10;;;23.00;99.90;;;;;;4947456;28;20056;-70
2023/08/17 10:29:53;;;;;;;0.00;0.00;;;23.20;99.90;;;;;;4922779;28;20141;-70
2023/08/17 10:32:22;;;;;;;0.00;0.00;;;22.80;99.90;;;;;;4937054;28;20453;-71
2023/08/17 10:34:48;;;;;;;0.00;0.00;;;22.80;99.90;;;;;;4943105;28;20056;-70
2023/08/17 10:37:15;;;;;;;0.00;0.00;;;22.80;99.90;;;;;;4917554;28;20061;-69
2023/08/17 10:39:46;;;;;;;0.00;0.00;;;22.50;99.90;;;;;;4916750;28;20059;-70
2023/08/17 10:42:12;;;;;;;0.00;0.00;;;22.80;99.90;;;;;;4916248;28;20517;-70
2023/08/17 10:44:48;;;;;;;0.00;0.00;;;22.70;99.90;;;;;;4955129;28;20134;-69
2023/08/17 10:47:29;;;;;;;0.00;0.00;;;22.90;99.90;;;;;;4922649;28;20437;-70
2023/08/17 10:49:58;;;;;;;0.00;0.00;;;23.00;99.90;;;;;;4920866;28;20076;-70
2023/08/17 10:52:28;;;;;;;0.15;0.08;;;23.10;99.90;;;;;;4930936;28;20135;-70
2023/08/17 10:54:55;;;;;;;0.55;0.20;;;23.20;99.90;;;;;;4949595;28;20373;-70
2023/08/17 10:57:29;;;;;;;0.00;0.00;;;23.00;99.90;;;;;;4935925;28;20151;-70
2023/08/17 11:00:31;;;;;;;0.00;0.00;;;22.70;99.90;;;;;;4914648;28;20044;-70
2023/08/17 11:03:05;;;;;;;0.10;0.10;;;23.10;99.90;;;;;;4928606;28;20104;-70
2023/08/17 11:05:34;;;;;;;0.57;0.35;;;23.60;99.90;;;;;;4960021;28;20040;-70
2023/08/17 11:08:00;;;;;;;0.00;0.00;;;23.50;99.90;;;;;;4900966;28;20040;-70
2023/08/17 11:10:25;;;;;;;0.20;0.20;;;23.30;99.90;;;;;;4944718;28;20052;-70
2023/08/17 11:12:56;;;;;;;0.00;0.00;;;23.00;99.90;;;;;;4930046;28;20041;-70
2023/08/17 11:15:24;;;;;;;0.30;0.20;;;23.30;99.90;;;;;;4935798;28;20510;-69
2023/08/17 11:17:49;;;;;;;0.00;0.00;;;23.20;99.90;;;;;;4925553;28;20547;-70
2023/08/17 11:20:15;;;;;;;0.00;0.00;;;23.10;99.90;;;;;;4927897;28;20127;-69
2023/08/17 11:22:41;;;;;;;0.00;0.00;;;23.00;99.90;;;;;;4924234;28;20048;-69
2023/08/17 11:25:07;;;;;;;1.00;0.10;;;22.90;99.90;;;;;;4946455;28;20051;-69
2023/08/17 11:27:33;;;;;;;0.63;0.52;;;22.80;99.90;;;;;;4976593;28;20301;-68
2023/08/17 11:29:59;;;;;;;0.95;0.10;;;22.70;99.90;;;;;;4915913;28;20048;-69
2023/08/17 11:32:24;;;;;;;0.00;0.00;;;22.70;99.90;;;;;;4915449;28;20416;-69
2023/08/17 11:34:51;;;;;;;0.15;0.08;;;23.20;99.90;;;;;;4915498;28;20048;-68
2023/08/17 11:37:16;;;;;;;0.00;0.00;;;23.60;99.90;;;;;;4906107;28;20059;-70
2023/08/17 11:39:42;;;;;;;0.00;0.00;;;23.80;99.90;;;;;;4955084;28;20048;-69
2023/08/17 11:42:08;;;;;;;0.00;0.00;;;23.90;99.90;;;;;;4908346;28;20060;-69
2023/08/17 11:44:34;;;;;;;0.00;0.00;;;23.70;99.90;;;;;;4950356;28;20174;-70
2023/08/17 11:46:59;;;;;;;0.70;0.30;;;24.00;99.90;;;;;;4912500;28;20043;-69
2023/08/17 11:49:25;;;;;;;0.00;0.00;;;23.80;99.90;;;;;;4916864;28;20036;-69
2023/08/17 11:51:54;;;;;;;0.00;0.00;;;23.60;99.90;;;;;;4924848;28;20484;-69
2023/08/17 11:54:21;;;;;;;0.00;0.00;;;23.50;99.90;;;;;;4929604;28;20042;-69
2023/08/17 11:56:47;;;;;;;0.00;0.00;;;23.30;99.90;;;;;;4940293;28;20097;-71
2023/08/17 11:59:22;;;;;;;0.28;0.15;;;23.00;99.90;;;;;;4926847;28;20150;-69
2023/08/17 12:01:49;;;;;;;0.15;0.08;;;22.80;99.90;;;;;;4946708;28;20468;-70
2023/08/17 12:04:14;;;;;;;0.00;0.00;;;22.80;99.90;;;;;;4932650;28;20052;-70
2023/08/17 12:06:44;;;;;;;0.00;0.00;;;22.80;99.90;;;;;;4949437;28;20367;-70
2023/08/17 12:09:10;;;;;;;0.00;0.00;;;22.60;99.90;;;;;;4919423;28;20052;-70
2023/08/17 12:11:35;;;;;;;0.00;0.00;;;22.40;99.90;;;;;;4905630;28;21643;-70
2023/08/17 12:14:09;;;;;;;0.00;0.00;;;22.50;99.90;;;;;;4921181;28;20048;-69
2023/08/17 12:16:44;;;;;;;0.20;0.20;;;22.50;99.90;;;;;;4915824;28;20053;-69
2023/08/17 12:19:10;;;;;;;0.00;0.00;;;22.60;99.90;;;;;;4966156;28;20195;-70
2023/08/17 12:21:35;;;;;;;0.00;0.00;;;22.60;99.90;;;;;;4913337;28;20063;-70
2023/08/17 12:24:04;;;;;;;0.00;0.00;;;22.50;99.90;;;;;;4927306;28;20040;-70
2023/08/17 12:26:32;;;;;;;0.00;0.00;;;22.50;99.90;;;;;;4945662;28;20044;-70
2023/08/17 12:28:58;;;;;;;0.15;0.10;;;22.50;99.90;;;;;;4906856;28;20054;-69
2023/08/17 12:31:23;;;;;;;0.00;0.00;;;22.40;99.90;;;;;;4933343;28;20157;-68
2023/08/17 12:33:50;;;;;;;0.00;0.00;;;22.30;99.90;;;;;;4938151;28;20060;-67
2023/08/17 12:36:16;;;;;;;0.00;0.00;;;22.20;99.90;;;;;;4935994;28;20044;-68
2023/08/17 12:38:44;;;;;;;0.00;0.00;;;22.30;99.90;;;;;;4936141;28;20054;-67
2023/08/17 12:41:10;;;;;;;0.00;0.00;;;22.20;99.90;;;;;;4968565;28;20047;-68
2023/08/17 12:43:37;;;;;;;0.00;0.00;;;22.10;99.90;;;;;;4930398;28;20048;-68
2023/08/17 12:46:02;;;;;;;0.20;0.20;;;22.00;99.90;;;;;;4914233;28;20043;-69